Estación Meteorológica Peña el Pijo (Robertgarden) [ 01/16/21 20:52:46 CET ]

Fecha Hora Presion(HPa) Temp (°C) Humedad % Rocio (°C) Viento ( m/s) Direccion Lluvia 1Hora(mm) Lluvia 24H(mm) LLuvia Total(mm)
2021-Jan-13 01:09:40 1015.600 -3.6 88 -5.3 - N     89.61
2021-Jan-13 02:09:49 1015.200 -4.1 87 -5.9 - N     89.61
2021-Jan-13 03:09:43 1015.100 -4.2 86 -6.2 - N     89.61
2021-Jan-13 04:09:34 1015.200 -4.4 85 -6.6 - N     89.61
2021-Jan-13 05:11:26 1014.800 -4.4 84 -6.7 - N     89.61
2021-Jan-13 06:09:23 1014.400 -4.7 85 -6.8 - N     89.61
2021-Jan-13 07:09:29 1014.400 -4.4 84 -6.7 - N     89.61
2021-Jan-13 08:09:49 1014.700 -5.0 86 -7.0 - N     89.61
2021-Jan-13 09:09:29 1015.200 -5.3 86 -7.3 - N     89.61
2021-Jan-13 10:09:31 1015.600 1.9 81 -1.0 - N     89.61
2021-Jan-13 11:09:27 1015.700 6.1 70 1.1 - N     89.61
2021-Jan-13 12:09:34 1015.200 7.1 63 0.5 - N     89.61
2021-Jan-13 13:09:32 1014.200 8.6 72 3.8 - N     89.61
2021-Jan-13 14:09:26 1013.600 8.1 81 5.1 - N     89.61
2021-Jan-13 15:09:43 1013.300 7.2 89 5.5 - N     89.61
2021-Jan-13 16:09:44 1013.300 5.4 88 3.6 - N     89.61
2021-Jan-13 17:09:23 1013.400 5.3 89 3.6 - N     89.61
2021-Jan-13 18:09:44 1013.900 2.4 91 1.1 - N     89.61
2021-Jan-13 19:09:36 1014.200 1.3 91 -0.1 - N     89.61
2021-Jan-13 20:09:25 1014.500 0.3 91 -1.0 - N     89.61
2021-Jan-13 21:09:25 1014.900 -0.1 91 -1.4 - N     89.61
2021-Jan-13 22:09:20 1014.800 -0.7 91 -2.0 - N     89.61
2021-Jan-13 23:09:27 1014.800 -0.7 90 -2.1 - N     89.61

Temperatura Máxima:    Temperatura Mínima:-5°
Presión Máxima:1015.700 Hpa    Presión Mínima:1013.300 Hpa


Volver